sensor_id;sensor_type;location;lat;lon;timestamp;temperature;humidity
27492;DHT22;14927;51.210;6.838;2022-08-21T00:01:28;23.20;54.40
27492;DHT22;14927;51.210;6.838;2022-08-21T00:04:13;23.20;54.60
27492;DHT22;14927;51.210;6.838;2022-08-21T00:06:59;23.20;54.80
27492;DHT22;14927;51.210;6.838;2022-08-21T00:09:44;23.10;55.00
27492;DHT22;14927;51.210;6.838;2022-08-21T00:12:29;23.10;55.00
27492;DHT22;14927;51.210;6.838;2022-08-21T00:15:19;23.00;55.00
27492;DHT22;14927;51.210;6.838;2022-08-21T00:18:10;23.00;55.20
27492;DHT22;14927;51.210;6.838;2022-08-21T00:20:55;23.00;55.30
27492;DHT22;14927;51.210;6.838;2022-08-21T00:23:39;23.00;55.40
27492;DHT22;14927;51.210;6.838;2022-08-21T00:26:24;22.90;55.40
27492;DHT22;14927;51.210;6.838;2022-08-21T00:29:08;22.90;55.50
27492;DHT22;14927;51.210;6.838;2022-08-21T00:31:53;22.90;55.50
27492;DHT22;14927;51.210;6.838;2022-08-21T00:34:38;22.80;55.60
27492;DHT22;14927;51.210;6.838;2022-08-21T00:37:23;22.80;55.70
27492;DHT22;14927;51.210;6.838;2022-08-21T00:40:11;22.80;55.80
27492;DHT22;14927;51.210;6.838;2022-08-21T00:42:59;22.70;55.90
27492;DHT22;14927;51.210;6.838;2022-08-21T00:45:46;22.70;55.90
27492;DHT22;14927;51.210;6.838;2022-08-21T00:48:32;22.70;56.00
27492;DHT22;14927;51.210;6.838;2022-08-21T00:51:20;22.70;56.20
27492;DHT22;14927;51.210;6.838;2022-08-21T00:54:10;22.60;56.40
27492;DHT22;14927;51.210;6.838;2022-08-21T00:57:00;22.50;56.30
27492;DHT22;14927;51.210;6.838;2022-08-21T00:59:50;22.50;57.10
27492;DHT22;14927;51.210;6.838;2022-08-21T01:02:36;22.50;56.50
27492;DHT22;14927;51.210;6.838;2022-08-21T01:05:20;22.50;56.50
27492;DHT22;14927;51.210;6.838;2022-08-21T01:08:07;22.40;56.60
27492;DHT22;14927;51.210;6.838;2022-08-21T01:10:54;22.40;56.80
27492;DHT22;14927;51.210;6.838;2022-08-21T01:13:40;22.40;57.00
27492;DHT22;14927;51.210;6.838;2022-08-21T01:16:29;22.30;57.00
27492;DHT22;14927;51.210;6.838;2022-08-21T01:19:13;22.30;57.20
27492;DHT22;14927;51.210;6.838;2022-08-21T01:22:13;22.30;57.40
27492;DHT22;14927;51.210;6.838;2022-08-21T01:24:57;22.30;58.00
27492;DHT22;14927;51.210;6.838;2022-08-21T01:27:42;22.20;57.60
27492;DHT22;14927;51.210;6.838;2022-08-21T01:30:27;22.20;57.70
27492;DHT22;14927;51.210;6.838;2022-08-21T01:33:12;22.20;57.90
27492;DHT22;14927;51.210;6.838;2022-08-21T01:35:57;22.10;58.00
27492;DHT22;14927;51.210;6.838;2022-08-21T01:38:41;22.10;58.10
27492;DHT22;14927;51.210;6.838;2022-08-21T01:41:26;22.10;58.20
27492;DHT22;14927;51.210;6.838;2022-08-21T01:44:10;22.10;58.40
27492;DHT22;14927;51.210;6.838;2022-08-21T01:46:58;22.10;58.50
27492;DHT22;14927;51.210;6.838;2022-08-21T01:49:45;22.00;58.60
27492;DHT22;14927;51.210;6.838;2022-08-21T01:52:30;22.00;58.60
27492;DHT22;14927;51.210;6.838;2022-08-21T01:55:15;22.00;58.70
27492;DHT22;14927;51.210;6.838;2022-08-21T01:58:02;21.90;58.80
27492;DHT22;14927;51.210;6.838;2022-08-21T02:00:47;21.90;58.80
27492;DHT22;14927;51.210;6.838;2022-08-21T02:03:32;21.90;58.80
27492;DHT22;14927;51.210;6.838;2022-08-21T02:06:17;21.80;58.90
27492;DHT22;14927;51.210;6.838;2022-08-21T02:09:06;21.80;58.90
27492;DHT22;14927;51.210;6.838;2022-08-21T02:11:52;21.80;58.90
27492;DHT22;14927;51.210;6.838;2022-08-21T02:14:38;21.70;58.70
27492;DHT22;14927;51.210;6.838;2022-08-21T02:17:23;21.70;58.80
27492;DHT22;14927;51.210;6.838;2022-08-21T02:20:08;21.70;58.70
27492;DHT22;14927;51.210;6.838;2022-08-21T02:22:54;21.60;58.70
27492;DHT22;14927;51.210;6.838;2022-08-21T02:25:40;21.60;58.70
27492;DHT22;14927;51.210;6.838;2022-08-21T02:28:27;21.60;58.80
27492;DHT22;14927;51.210;6.838;2022-08-21T02:31:12;21.60;58.90
27492;DHT22;14927;51.210;6.838;2022-08-21T02:33:57;21.60;58.80
27492;DHT22;14927;51.210;6.838;2022-08-21T02:36:41;21.50;58.80
27492;DHT22;14927;51.210;6.838;2022-08-21T02:39:26;21.50;58.90
27492;DHT22;14927;51.210;6.838;2022-08-21T02:42:10;21.50;59.00
27492;DHT22;14927;51.210;6.838;2022-08-21T02:44:55;21.40;59.00
27492;DHT22;14927;51.210;6.838;2022-08-21T02:47:46;21.40;59.10
27492;DHT22;14927;51.210;6.838;2022-08-21T02:50:39;21.40;59.00
27492;DHT22;14927;51.210;6.838;2022-08-21T02:53:26;21.40;59.10
27492;DHT22;14927;51.210;6.838;2022-08-21T02:56:15;21.30;58.90
27492;DHT22;14927;51.210;6.838;2022-08-21T02:59:02;21.30;59.00
27492;DHT22;14927;51.210;6.838;2022-08-21T03:01:46;21.30;59.00
27492;DHT22;14927;51.210;6.838;2022-08-21T03:04:31;21.30;59.00
27492;DHT22;14927;51.210;6.838;2022-08-21T03:07:16;21.30;59.10
27492;DHT22;14927;51.210;6.838;2022-08-21T03:10:01;21.30;59.10
27492;DHT22;14927;51.210;6.838;2022-08-21T03:12:46;21.20;59.00
27492;DHT22;14927;51.210;6.838;2022-08-21T03:15:32;21.20;59.00
27492;DHT22;14927;51.210;6.838;2022-08-21T03:18:17;21.20;58.90
27492;DHT22;14927;51.210;6.838;2022-08-21T03:21:02;21.20;58.90
27492;DHT22;14927;51.210;6.838;2022-08-21T03:23:48;21.20;58.90
27492;DHT22;14927;51.210;6.838;2022-08-21T03:26:33;21.20;59.00
27492;DHT22;14927;51.210;6.838;2022-08-21T03:29:17;21.20;58.90
27492;DHT22;14927;51.210;6.838;2022-08-21T03:32:02;21.20;58.90
27492;DHT22;14927;51.210;6.838;2022-08-21T03:34:47;21.20;59.00
27492;DHT22;14927;51.210;6.838;2022-08-21T03:37:31;20.90;58.80
27492;DHT22;14927;51.210;6.838;2022-08-21T03:40:18;21.20;59.00
27492;DHT22;14927;51.210;6.838;2022-08-21T03:43:03;21.10;58.90
27492;DHT22;14927;51.210;6.838;2022-08-21T03:45:47;21.10;58.80
27492;DHT22;14927;51.210;6.838;2022-08-21T03:48:33;21.10;58.90
27492;DHT22;14927;51.210;6.838;2022-08-21T03:51:19;21.10;58.80
27492;DHT22;14927;51.210;6.838;2022-08-21T03:54:04;21.10;58.90
27492;DHT22;14927;51.210;6.838;2022-08-21T03:56:48;21.10;58.90
27492;DHT22;14927;51.210;6.838;2022-08-21T03:59:33;21.10;58.90
27492;DHT22;14927;51.210;6.838;2022-08-21T04:02:21;21.10;58.90
27492;DHT22;14927;51.210;6.838;2022-08-21T04:05:07;21.10;58.90
27492;DHT22;14927;51.210;6.838;2022-08-21T04:08:02;21.00;58.90
27492;DHT22;14927;51.210;6.838;2022-08-21T04:10:49;21.00;58.90
27492;DHT22;14927;51.210;6.838;2022-08-21T04:13:36;21.00;59.00
27492;DHT22;14927;51.210;6.838;2022-08-21T04:16:21;21.00;59.00
27492;DHT22;14927;51.210;6.838;2022-08-21T04:19:05;20.90;59.10
27492;DHT22;14927;51.210;6.838;2022-08-21T04:21:50;20.90;59.20
27492;DHT22;14927;51.210;6.838;2022-08-21T04:24:35;20.90;59.20
27492;DHT22;14927;51.210;6.838;2022-08-21T04:27:19;20.90;59.30
27492;DHT22;14927;51.210;6.838;2022-08-21T04:30:04;20.90;59.30
27492;DHT22;14927;51.210;6.838;2022-08-21T04:32:50;20.90;59.30
27492;DHT22;14927;51.210;6.838;2022-08-21T04:35:35;20.90;59.30
27492;DHT22;14927;51.210;6.838;2022-08-21T04:38:19;20.90;59.30
27492;DHT22;14927;51.210;6.838;2022-08-21T04:41:05;20.90;60.00
27492;DHT22;14927;51.210;6.838;2022-08-21T04:43:50;20.80;59.30
27492;DHT22;14927;51.210;6.838;2022-08-21T04:46:35;20.80;59.40
27492;DHT22;14927;51.210;6.838;2022-08-21T04:49:19;20.80;59.40
27492;DHT22;14927;51.210;6.838;2022-08-21T04:52:05;20.80;59.40
27492;DHT22;14927;51.210;6.838;2022-08-21T04:54:50;20.80;59.50
27492;DHT22;14927;51.210;6.838;2022-08-21T04:57:36;20.80;59.40
27492;DHT22;14927;51.210;6.838;2022-08-21T05:00:22;20.70;59.40
27492;DHT22;14927;51.210;6.838;2022-08-21T05:03:09;20.80;59.50
27492;DHT22;14927;51.210;6.838;2022-08-21T05:05:55;20.70;59.50
27492;DHT22;14927;51.210;6.838;2022-08-21T05:08:40;20.70;59.50
27492;DHT22;14927;51.210;6.838;2022-08-21T05:11:26;20.70;59.50
27492;DHT22;14927;51.210;6.838;2022-08-21T05:14:12;20.70;59.50
27492;DHT22;14927;51.210;6.838;2022-08-21T05:16:56;20.70;59.60
27492;DHT22;14927;51.210;6.838;2022-08-21T05:19:43;20.70;59.60
27492;DHT22;14927;51.210;6.838;2022-08-21T05:22:27;20.60;59.60
27492;DHT22;14927;51.210;6.838;2022-08-21T05:25:12;20.60;59.60
27492;DHT22;14927;51.210;6.838;2022-08-21T05:27:57;20.60;59.60
27492;DHT22;14927;51.210;6.838;2022-08-21T05:30:41;20.70;59.70
27492;DHT22;14927;51.210;6.838;2022-08-21T05:33:26;20.70;59.70
27492;DHT22;14927;51.210;6.838;2022-08-21T05:36:10;20.60;59.50
27492;DHT22;14927;51.210;6.838;2022-08-21T05:38:55;20.70;59.60
27492;DHT22;14927;51.210;6.838;2022-08-21T05:41:40;20.60;59.50
27492;DHT22;14927;51.210;6.838;2022-08-21T05:44:25;20.70;59.70
27492;DHT22;14927;51.210;6.838;2022-08-21T05:47:10;20.70;59.80
27492;DHT22;14927;51.210;6.838;2022-08-21T05:49:55;20.70;59.80
27492;DHT22;14927;51.210;6.838;2022-08-21T05:52:40;20.70;59.90
27492;DHT22;14927;51.210;6.838;2022-08-21T05:55:24;20.70;59.90
27492;DHT22;14927;51.210;6.838;2022-08-21T05:58:09;20.70;60.00
27492;DHT22;14927;51.210;6.838;2022-08-21T06:00:55;20.70;60.00
27492;DHT22;14927;51.210;6.838;2022-08-21T06:03:41;20.70;60.00
27492;DHT22;14927;51.210;6.838;2022-08-21T06:06:26;20.80;60.10
27492;DHT22;14927;51.210;6.838;2022-08-21T06:09:11;20.80;60.10
27492;DHT22;14927;51.210;6.838;2022-08-21T06:11:56;20.80;60.10
27492;DHT22;14927;51.210;6.838;2022-08-21T06:14:41;20.80;60.10
27492;DHT22;14927;51.210;6.838;2022-08-21T06:17:26;20.80;60.10
27492;DHT22;14927;51.210;6.838;2022-08-21T06:20:10;20.90;60.10
27492;DHT22;14927;51.210;6.838;2022-08-21T06:22:55;20.90;60.20
27492;DHT22;14927;51.210;6.838;2022-08-21T06:25:40;21.00;60.20
27492;DHT22;14927;51.210;6.838;2022-08-21T06:28:24;21.00;60.00
27492;DHT22;14927;51.210;6.838;2022-08-21T06:31:14;21.00;60.00
27492;DHT22;14927;51.210;6.838;2022-08-21T06:34:03;21.10;60.10
27492;DHT22;14927;51.210;6.838;2022-08-21T06:36:48;21.10;60.10
27492;DHT22;14927;51.210;6.838;2022-08-21T06:39:33;21.20;60.00
27492;DHT22;14927;51.210;6.838;2022-08-21T06:42:18;21.20;59.80
27492;DHT22;14927;51.210;6.838;2022-08-21T06:45:03;21.30;59.00
27492;DHT22;14927;51.210;6.838;2022-08-21T06:47:48;21.30;58.40
27492;DHT22;14927;51.210;6.838;2022-08-21T06:50:36;21.40;58.20
27492;DHT22;14927;51.210;6.838;2022-08-21T06:53:21;21.40;57.90
27492;DHT22;14927;51.210;6.838;2022-08-21T06:56:06;21.50;57.80
27492;DHT22;14927;51.210;6.838;2022-08-21T06:58:51;21.50;57.50
27492;DHT22;14927;51.210;6.838;2022-08-21T07:01:36;21.60;57.30
27492;DHT22;14927;51.210;6.838;2022-08-21T07:04:21;21.60;56.90
27492;DHT22;14927;51.210;6.838;2022-08-21T07:07:05;21.70;56.60
27492;DHT22;14927;51.210;6.838;2022-08-21T07:09:50;21.80;56.40
27492;DHT22;14927;51.210;6.838;2022-08-21T07:12:35;21.80;56.10
27492;DHT22;14927;51.210;6.838;2022-08-21T07:15:20;21.90;55.80
27492;DHT22;14927;51.210;6.838;2022-08-21T07:18:05;21.90;55.20
27492;DHT22;14927;51.210;6.838;2022-08-21T07:20:50;22.00;54.90
27492;DHT22;14927;51.210;6.838;2022-08-21T07:23:40;22.00;54.70
27492;DHT22;14927;51.210;6.838;2022-08-21T07:26:27;22.10;54.40
27492;DHT22;14927;51.210;6.838;2022-08-21T07:29:11;22.10;54.50
27492;DHT22;14927;51.210;6.838;2022-08-21T07:31:56;22.20;55.30
27492;DHT22;14927;51.210;6.838;2022-08-21T07:34:42;22.30;55.40
27492;DHT22;14927;51.210;6.838;2022-08-21T07:37:26;22.40;54.80
27492;DHT22;14927;51.210;6.838;2022-08-21T07:40:11;22.50;54.80
27492;DHT22;14927;51.210;6.838;2022-08-21T07:42:56;22.60;54.30
27492;DHT22;14927;51.210;6.838;2022-08-21T07:45:40;22.80;53.80
27492;DHT22;14927;51.210;6.838;2022-08-21T07:48:25;22.90;53.50
27492;DHT22;14927;51.210;6.838;2022-08-21T07:51:12;23.10;53.40
27492;DHT22;14927;51.210;6.838;2022-08-21T07:53:58;23.20;52.90
27492;DHT22;14927;51.210;6.838;2022-08-21T07:56:43;23.30;52.80
27492;DHT22;14927;51.210;6.838;2022-08-21T07:59:28;23.40;52.20
27492;DHT22;14927;51.210;6.838;2022-08-21T08:02:27;23.50;51.70
27492;DHT22;14927;51.210;6.838;2022-08-21T08:05:13;23.60;51.20
27492;DHT22;14927;51.210;6.838;2022-08-21T08:07:58;23.70;52.10
27492;DHT22;14927;51.210;6.838;2022-08-21T08:10:43;23.80;51.40
27492;DHT22;14927;51.210;6.838;2022-08-21T08:13:29;23.90;50.70
27492;DHT22;14927;51.210;6.838;2022-08-21T08:16:14;23.90;50.50
27492;DHT22;14927;51.210;6.838;2022-08-21T08:18:59;24.00;50.20
27492;DHT22;14927;51.210;6.838;2022-08-21T08:21:45;24.10;50.70
27492;DHT22;14927;51.210;6.838;2022-08-21T08:24:29;24.10;50.10
27492;DHT22;14927;51.210;6.838;2022-08-21T08:27:15;24.20;49.70
27492;DHT22;14927;51.210;6.838;2022-08-21T08:30:00;24.30;49.30
27492;DHT22;14927;51.210;6.838;2022-08-21T08:32:45;24.40;49.10
27492;DHT22;14927;51.210;6.838;2022-08-21T08:35:31;24.50;49.40
27492;DHT22;14927;51.210;6.838;2022-08-21T08:38:19;24.50;48.40
27492;DHT22;14927;51.210;6.838;2022-08-21T08:41:17;24.60;47.90
27492;DHT22;14927;51.210;6.838;2022-08-21T08:44:05;24.60;46.60
27492;DHT22;14927;51.210;6.838;2022-08-21T08:46:51;24.70;47.00
27492;DHT22;14927;51.210;6.838;2022-08-21T08:49:43;24.80;46.80
27492;DHT22;14927;51.210;6.838;2022-08-21T08:52:37;24.80;46.40
27492;DHT22;14927;51.210;6.838;2022-08-21T08:55:37;24.80;46.80
27492;DHT22;14927;51.210;6.838;2022-08-21T08:58:29;24.90;46.30
27492;DHT22;14927;51.210;6.838;2022-08-21T09:01:19;25.00;46.60
27492;DHT22;14927;51.210;6.838;2022-08-21T09:04:04;25.10;46.70
27492;DHT22;14927;51.210;6.838;2022-08-21T09:07:08;25.20;46.60
27492;DHT22;14927;51.210;6.838;2022-08-21T09:16:09;25.40;45.70
27492;DHT22;14927;51.210;6.838;2022-08-21T09:19:07;25.40;44.40
27492;DHT22;14927;51.210;6.838;2022-08-21T09:25:27;25.50;44.20
27492;DHT22;14927;51.210;6.838;2022-08-21T09:28:15;25.50;44.30
27492;DHT22;14927;51.210;6.838;2022-08-21T09:34:25;25.50;43.90
27492;DHT22;14927;51.210;6.838;2022-08-21T09:37:18;25.60;44.10
27492;DHT22;14927;51.210;6.838;2022-08-21T09:40:36;25.60;43.90
27492;DHT22;14927;51.210;6.838;2022-08-21T09:43:29;25.50;43.50
27492;DHT22;14927;51.210;6.838;2022-08-21T09:46:23;25.70;44.00
27492;DHT22;14927;51.210;6.838;2022-08-21T09:49:09;25.60;43.20
27492;DHT22;14927;51.210;6.838;2022-08-21T09:51:54;25.60;43.70
27492;DHT22;14927;51.210;6.838;2022-08-21T09:54:40;25.60;44.00
27492;DHT22;14927;51.210;6.838;2022-08-21T09:57:27;25.70;44.10
27492;DHT22;14927;51.210;6.838;2022-08-21T10:00:32;25.70;43.80
27492;DHT22;14927;51.210;6.838;2022-08-21T10:03:20;25.80;44.00
27492;DHT22;14927;51.210;6.838;2022-08-21T10:06:07;25.80;43.80
27492;DHT22;14927;51.210;6.838;2022-08-21T10:09:09;25.90;43.80
27492;DHT22;14927;51.210;6.838;2022-08-21T10:12:19;25.90;43.30
27492;DHT22;14927;51.210;6.838;2022-08-21T10:15:21;26.00;43.00
27492;DHT22;14927;51.210;6.838;2022-08-21T10:18:40;26.30;43.20
27492;DHT22;14927;51.210;6.838;2022-08-21T10:44:10;26.50;42.10
27492;DHT22;14927;51.210;6.838;2022-08-21T10:47:27;26.70;42.30
27492;DHT22;14927;51.210;6.838;2022-08-21T10:54:32;26.80;41.50
27492;DHT22;14927;51.210;6.838;2022-08-21T10:57:07;26.90;42.00
27492;DHT22;14927;51.210;6.838;2022-08-21T11:00:03;27.00;41.10
27492;DHT22;14927;51.210;6.838;2022-08-21T11:03:21;27.00;40.80
27492;DHT22;14927;51.210;6.838;2022-08-21T11:06:32;27.10;40.50
27492;DHT22;14927;51.210;6.838;2022-08-21T11:09:22;27.10;41.20
27492;DHT22;14927;51.210;6.838;2022-08-21T11:12:50;27.20;40.50
27492;DHT22;14927;51.210;6.838;2022-08-21T11:15:59;27.30;40.70
27492;DHT22;14927;51.210;6.838;2022-08-21T11:18:55;27.40;40.70
27492;DHT22;14927;51.210;6.838;2022-08-21T11:25:06;27.60;40.20
27492;DHT22;14927;51.210;6.838;2022-08-21T11:31:38;27.70;39.30
27492;DHT22;14927;51.210;6.838;2022-08-21T11:38:17;27.80;39.50
27492;DHT22;14927;51.210;6.838;2022-08-21T11:44:44;28.00;39.10
27492;DHT22;14927;51.210;6.838;2022-08-21T11:47:45;28.10;39.60
27492;DHT22;14927;51.210;6.838;2022-08-21T11:50:37;28.20;39.40
27492;DHT22;14927;51.210;6.838;2022-08-21T11:53:47;28.30;39.10
27492;DHT22;14927;51.210;6.838;2022-08-21T11:56:41;28.30;38.20
27492;DHT22;14927;51.210;6.838;2022-08-21T11:59:43;28.40;38.60
27492;DHT22;14927;51.210;6.838;2022-08-21T12:02:36;28.50;38.30
27492;DHT22;14927;51.210;6.838;2022-08-21T12:05:39;28.60;38.20
27492;DHT22;14927;51.210;6.838;2022-08-21T12:16:51;29.20;37.50
27492;DHT22;14927;51.210;6.838;2022-08-21T12:19:36;29.30;37.50
27492;DHT22;14927;51.210;6.838;2022-08-21T12:22:21;29.50;37.30
27492;DHT22;14927;51.210;6.838;2022-08-21T12:25:11;29.70;37.00
27492;DHT22;14927;51.210;6.838;2022-08-21T12:28:10;29.80;36.20
27492;DHT22;14927;51.210;6.838;2022-08-21T12:30:58;30.00;35.30
27492;DHT22;14927;51.210;6.838;2022-08-21T12:33:51;30.30;35.40
27492;DHT22;14927;51.210;6.838;2022-08-21T12:36:43;30.50;34.60
27492;DHT22;14927;51.210;6.838;2022-08-21T12:39:32;30.70;34.20
27492;DHT22;14927;51.210;6.838;2022-08-21T12:42:31;30.90;34.30
27492;DHT22;14927;51.210;6.838;2022-08-21T12:45:34;31.10;33.90
27492;DHT22;14927;51.210;6.838;2022-08-21T12:48:33;31.30;33.50
27492;DHT22;14927;51.210;6.838;2022-08-21T12:51:37;31.50;33.40
27492;DHT22;14927;51.210;6.838;2022-08-21T12:54:37;31.80;33.30
27492;DHT22;14927;51.210;6.838;2022-08-21T12:57:29;32.00;32.50
27492;DHT22;14927;51.210;6.838;2022-08-21T13:00:21;32.10;32.10
27492;DHT22;14927;51.210;6.838;2022-08-21T13:03:08;32.30;31.30
27492;DHT22;14927;51.210;6.838;2022-08-21T13:05:53;32.40;31.40
27492;DHT22;14927;51.210;6.838;2022-08-21T13:08:38;32.50;31.10
27492;DHT22;14927;51.210;6.838;2022-08-21T13:11:24;32.70;31.80
27492;DHT22;14927;51.210;6.838;2022-08-21T13:14:38;32.80;30.80
27492;DHT22;14927;51.210;6.838;2022-08-21T13:17:26;32.90;30.20
27492;DHT22;14927;51.210;6.838;2022-08-21T13:20:22;33.20;30.50
27492;DHT22;14927;51.210;6.838;2022-08-21T13:23:26;33.40;30.00
27492;DHT22;14927;51.210;6.838;2022-08-21T13:26:20;33.50;29.60
27492;DHT22;14927;51.210;6.838;2022-08-21T13:29:14;33.80;29.50
27492;DHT22;14927;51.210;6.838;2022-08-21T13:32:05;34.10;29.10
27492;DHT22;14927;51.210;6.838;2022-08-21T13:34:51;34.40;29.10
27492;DHT22;14927;51.210;6.838;2022-08-21T13:37:39;34.60;31.40
27492;DHT22;14927;51.210;6.838;2022-08-21T13:40:38;34.80;28.30
27492;DHT22;14927;51.210;6.838;2022-08-21T13:43:32;34.90;27.70
27492;DHT22;14927;51.210;6.838;2022-08-21T13:46:21;35.00;27.70
27492;DHT22;14927;51.210;6.838;2022-08-21T13:49:09;35.10;27.20
27492;DHT22;14927;51.210;6.838;2022-08-21T13:51:54;35.10;27.40
27492;DHT22;14927;51.210;6.838;2022-08-21T13:54:40;35.40;27.40
27492;DHT22;14927;51.210;6.838;2022-08-21T13:57:31;35.60;26.90
27492;DHT22;14927;51.210;6.838;2022-08-21T14:00:25;35.70;26.70
27492;DHT22;14927;51.210;6.838;2022-08-21T14:03:13;35.90;26.20
27492;DHT22;14927;51.210;6.838;2022-08-21T14:06:23;36.00;26.00
27492;DHT22;14927;51.210;6.838;2022-08-21T14:09:13;36.00;26.10
27492;DHT22;14927;51.210;6.838;2022-08-21T14:12:19;36.00;25.70
27492;DHT22;14927;51.210;6.838;2022-08-21T14:15:12;35.90;25.50
27492;DHT22;14927;51.210;6.838;2022-08-21T14:18:29;35.80;25.80
27492;DHT22;14927;51.210;6.838;2022-08-21T14:21:25;35.70;26.40
27492;DHT22;14927;51.210;6.838;2022-08-21T14:27:07;35.50;26.10
27492;DHT22;14927;51.210;6.838;2022-08-21T14:29:58;35.40;26.20
27492;DHT22;14927;51.210;6.838;2022-08-21T14:32:45;35.30;26.30
27492;DHT22;14927;51.210;6.838;2022-08-21T14:35:34;35.10;26.70
27492;DHT22;14927;51.210;6.838;2022-08-21T14:38:22;35.00;26.50
27492;DHT22;14927;51.210;6.838;2022-08-21T14:41:23;34.80;26.60
27492;DHT22;14927;51.210;6.838;2022-08-21T14:44:12;34.70;27.00
27492;DHT22;14927;51.210;6.838;2022-08-21T14:47:00;34.60;27.00
27492;DHT22;14927;51.210;6.838;2022-08-21T14:49:45;34.40;26.80
27492;DHT22;14927;51.210;6.838;2022-08-21T14:52:30;34.30;26.80
27492;DHT22;14927;51.210;6.838;2022-08-21T14:55:16;34.20;27.10
27492;DHT22;14927;51.210;6.838;2022-08-21T14:58:01;34.00;27.10
27492;DHT22;14927;51.210;6.838;2022-08-21T15:00:46;33.90;27.10
27492;DHT22;14927;51.210;6.838;2022-08-21T15:03:31;33.80;27.10
27492;DHT22;14927;51.210;6.838;2022-08-21T15:06:17;33.60;27.00
27492;DHT22;14927;51.210;6.838;2022-08-21T15:09:04;33.50;27.40
27492;DHT22;14927;51.210;6.838;2022-08-21T15:11:53;33.30;27.60
27492;DHT22;14927;51.210;6.838;2022-08-21T15:14:42;33.20;27.80
27492;DHT22;14927;51.210;6.838;2022-08-21T15:17:27;33.10;27.90
27492;DHT22;14927;51.210;6.838;2022-08-21T15:20:12;33.00;28.30
27492;DHT22;14927;51.210;6.838;2022-08-21T15:22:58;32.90;28.30
27492;DHT22;14927;51.210;6.838;2022-08-21T15:25:45;32.80;28.30
27492;DHT22;14927;51.210;6.838;2022-08-21T15:28:34;32.60;28.70
27492;DHT22;14927;51.210;6.838;2022-08-21T15:31:18;32.60;28.80
27492;DHT22;14927;51.210;6.838;2022-08-21T15:34:03;32.50;28.90
27492;DHT22;14927;51.210;6.838;2022-08-21T15:36:49;32.50;29.10
27492;DHT22;14927;51.210;6.838;2022-08-21T15:39:35;32.40;29.00
27492;DHT22;14927;51.210;6.838;2022-08-21T15:42:20;32.30;28.80
27492;DHT22;14927;51.210;6.838;2022-08-21T15:45:06;32.20;29.00
27492;DHT22;14927;51.210;6.838;2022-08-21T15:47:52;32.10;29.10
27492;DHT22;14927;51.210;6.838;2022-08-21T15:50:38;32.10;29.10
27492;DHT22;14927;51.210;6.838;2022-08-21T15:53:23;32.10;29.30
27492;DHT22;14927;51.210;6.838;2022-08-21T15:56:25;32.00;29.30
27492;DHT22;14927;51.210;6.838;2022-08-21T15:59:17;31.90;29.10
27492;DHT22;14927;51.210;6.838;2022-08-21T16:02:13;31.90;29.00
27492;DHT22;14927;51.210;6.838;2022-08-21T16:04:59;31.80;28.90
27492;DHT22;14927;51.210;6.838;2022-08-21T16:07:46;31.80;29.30
27492;DHT22;14927;51.210;6.838;2022-08-21T16:10:35;31.80;29.30
27492;DHT22;14927;51.210;6.838;2022-08-21T16:13:29;31.70;29.10
27492;DHT22;14927;51.210;6.838;2022-08-21T16:16:22;31.60;29.40
27492;DHT22;14927;51.210;6.838;2022-08-21T16:19:08;31.60;29.40
27492;DHT22;14927;51.210;6.838;2022-08-21T16:21:55;31.60;29.50
27492;DHT22;14927;51.210;6.838;2022-08-21T16:24:39;31.50;29.40
27492;DHT22;14927;51.210;6.838;2022-08-21T16:27:25;31.50;29.50
27492;DHT22;14927;51.210;6.838;2022-08-21T16:30:11;31.40;29.40
27492;DHT22;14927;51.210;6.838;2022-08-21T16:33:03;31.30;29.20
27492;DHT22;14927;51.210;6.838;2022-08-21T16:35:48;31.30;29.30
27492;DHT22;14927;51.210;6.838;2022-08-21T16:38:35;31.30;29.40
27492;DHT22;14927;51.210;6.838;2022-08-21T16:41:23;31.20;29.40
27492;DHT22;14927;51.210;6.838;2022-08-21T16:44:08;31.20;29.20
27492;DHT22;14927;51.210;6.838;2022-08-21T16:46:54;31.10;29.30
27492;DHT22;14927;51.210;6.838;2022-08-21T16:49:39;31.10;29.40
27492;DHT22;14927;51.210;6.838;2022-08-21T16:52:24;31.00;29.30
27492;DHT22;14927;51.210;6.838;2022-08-21T16:55:09;31.00;29.50
27492;DHT22;14927;51.210;6.838;2022-08-21T16:57:57;30.90;29.50
27492;DHT22;14927;51.210;6.838;2022-08-21T17:00:44;30.90;29.60
27492;DHT22;14927;51.210;6.838;2022-08-21T17:03:33;30.80;29.60
27492;DHT22;14927;51.210;6.838;2022-08-21T17:06:23;30.70;29.50
27492;DHT22;14927;51.210;6.838;2022-08-21T17:09:09;30.70;29.50
27492;DHT22;14927;51.210;6.838;2022-08-21T17:11:56;30.60;29.70
27492;DHT22;14927;51.210;6.838;2022-08-21T17:14:41;30.50;29.80
27492;DHT22;14927;51.210;6.838;2022-08-21T17:17:26;30.50;29.90
27492;DHT22;14927;51.210;6.838;2022-08-21T17:20:12;30.40;29.90
27492;DHT22;14927;51.210;6.838;2022-08-21T17:22:58;30.40;30.10
27492;DHT22;14927;51.210;6.838;2022-08-21T17:25:45;30.30;30.00
27492;DHT22;14927;51.210;6.838;2022-08-21T17:28:34;30.30;30.20
27492;DHT22;14927;51.210;6.838;2022-08-21T17:31:22;30.30;30.30
27492;DHT22;14927;51.210;6.838;2022-08-21T17:34:07;30.30;30.30
27492;DHT22;14927;51.210;6.838;2022-08-21T17:36:53;30.20;30.20
27492;DHT22;14927;51.210;6.838;2022-08-21T17:39:38;30.20;30.20
27492;DHT22;14927;51.210;6.838;2022-08-21T17:42:23;30.20;31.00
27492;DHT22;14927;51.210;6.838;2022-08-21T17:45:11;30.10;30.10
27492;DHT22;14927;51.210;6.838;2022-08-21T17:47:57;30.00;30.20
27492;DHT22;14927;51.210;6.838;2022-08-21T17:50:42;30.00;30.90
27492;DHT22;14927;51.210;6.838;2022-08-21T17:53:26;29.90;30.20
27492;DHT22;14927;51.210;6.838;2022-08-21T17:56:13;29.90;30.30
27492;DHT22;14927;51.210;6.838;2022-08-21T17:58:59;29.80;30.30
27492;DHT22;14927;51.210;6.838;2022-08-21T18:01:44;29.80;30.30
27492;DHT22;14927;51.210;6.838;2022-08-21T18:04:30;29.70;30.40
27492;DHT22;14927;51.210;6.838;2022-08-21T18:07:17;29.60;30.30
27492;DHT22;14927;51.210;6.838;2022-08-21T18:10:06;29.60;30.60
27492;DHT22;14927;51.210;6.838;2022-08-21T18:12:54;29.50;30.80
27492;DHT22;14927;51.210;6.838;2022-08-21T18:15:43;29.50;31.10
27492;DHT22;14927;51.210;6.838;2022-08-21T18:18:35;29.40;31.30
27492;DHT22;14927;51.210;6.838;2022-08-21T18:21:26;29.30;31.30
27492;DHT22;14927;51.210;6.838;2022-08-21T18:24:11;29.30;31.40
27492;DHT22;14927;51.210;6.838;2022-08-21T18:26:56;29.20;31.60
27492;DHT22;14927;51.210;6.838;2022-08-21T18:29:40;29.20;31.80
27492;DHT22;14927;51.210;6.838;2022-08-21T18:32:26;29.10;31.90
27492;DHT22;14927;51.210;6.838;2022-08-21T18:35:14;29.10;32.00
27492;DHT22;14927;51.210;6.838;2022-08-21T18:37:59;29.00;31.90
27492;DHT22;14927;51.210;6.838;2022-08-21T18:40:49;28.90;32.10
27492;DHT22;14927;51.210;6.838;2022-08-21T18:43:35;28.80;32.20
27492;DHT22;14927;51.210;6.838;2022-08-21T18:46:21;28.80;32.40
27492;DHT22;14927;51.210;6.838;2022-08-21T18:49:06;28.80;32.60